createdAt,value
2023-05-10T00:00:38.694Z,9.77
2023-05-10T00:03:41.426Z,9.80
2023-05-10T00:06:43.538Z,9.07
2023-05-10T00:09:45.447Z,12.77
2023-05-10T00:12:47.467Z,10.27
2023-05-10T00:15:49.318Z,9.25
2023-05-10T00:18:51.220Z,13.57
2023-05-10T00:21:53.164Z,9.17
2023-05-10T00:24:55.094Z,9.05
2023-05-10T00:27:58.329Z,8.73
2023-05-10T00:31:00.365Z,9.75
2023-05-10T00:34:02.530Z,9.93
2023-05-10T00:37:04.394Z,10.40
2023-05-10T00:40:07.476Z,10.50
2023-05-10T00:43:09.359Z,12.02
2023-05-10T00:46:12.070Z,9.65
2023-05-10T00:49:14.170Z,9.87
2023-05-10T00:52:16.320Z,9.03
2023-05-10T00:55:19.210Z,9.48
2023-05-10T00:58:21.337Z,7.65
2023-05-10T01:01:23.532Z,8.60
2023-05-10T01:04:26.759Z,10.07
2023-05-10T01:07:29.188Z,8.23
2023-05-10T01:10:32.253Z,8.65
2023-05-10T01:13:37.246Z,9.48
2023-05-10T01:16:41.751Z,13.85
2023-05-10T01:19:43.784Z,10.80
2023-05-10T01:23:23.188Z,10.23
2023-05-10T01:26:46.584Z,11.55
2023-05-10T01:30:21.821Z,10.70
2023-05-10T01:34:06.638Z,10.15
2023-05-10T01:37:21.642Z,12.87
2023-05-10T01:40:43.675Z,11.60
2023-05-10T01:44:32.906Z,11.70
2023-05-10T01:48:04.124Z,10.90
2023-05-10T01:51:07.309Z,15.38
2023-05-10T01:54:11.856Z,12.97
2023-05-10T01:57:15.406Z,10.73
2023-05-10T02:00:20.001Z,13.62
2023-05-10T02:03:24.609Z,12.20
2023-05-10T02:06:28.152Z,12.52
2023-05-10T02:09:33.143Z,14.47
2023-05-10T02:12:42.639Z,11.60
2023-05-10T02:15:48.347Z,13.98
2023-05-10T02:18:51.555Z,13.55
2023-05-10T02:21:54.319Z,12.40
2023-05-10T02:25:00.789Z,12.77
2023-05-10T02:28:06.189Z,14.87
2023-05-10T02:31:10.896Z,15.05
2023-05-10T02:34:13.833Z,16.00
2023-05-10T02:37:19.497Z,12.55
2023-05-10T02:40:23.909Z,12.87
2023-05-10T02:43:26.813Z,14.30
2023-05-10T02:46:29.276Z,14.75
2023-05-10T02:49:31.251Z,13.62
2023-05-10T02:52:41.450Z,14.43
2023-05-10T02:55:47.647Z,12.63
2023-05-10T02:58:49.520Z,15.70
2023-05-10T03:01:51.614Z,14.18
2023-05-10T03:04:53.780Z,12.63
2023-05-10T03:07:56.660Z,15.05
2023-05-10T03:11:17.250Z,14.87
2023-05-10T03:14:51.683Z,15.30
2023-05-10T03:18:03.132Z,16.00
2023-05-10T03:21:09.128Z,15.23
2023-05-10T03:24:13.478Z,15.70
2023-05-10T03:27:16.501Z,11.90
2023-05-10T03:30:19.670Z,15.17
2023-05-10T03:33:21.871Z,13.62
2023-05-10T03:36:23.731Z,14.90
2023-05-10T03:39:54.260Z,14.73
2023-05-10T03:42:56.729Z,16.33
2023-05-10T03:45:58.575Z,13.43
2023-05-10T03:49:00.584Z,14.02
2023-05-10T03:52:02.584Z,13.55
2023-05-10T03:55:04.839Z,13.48
2023-05-10T03:58:06.942Z,14.70
2023-05-10T04:01:08.870Z,16.08
2023-05-10T04:04:11.042Z,14.13
2023-05-10T04:07:13.099Z,13.55
2023-05-10T04:10:15.302Z,13.43
2023-05-10T04:13:17.387Z,12.63
2023-05-10T04:16:19.342Z,14.07
2023-05-10T04:19:21.473Z,14.65
2023-05-10T04:22:23.347Z,16.30
2023-05-10T04:25:25.340Z,14.00
2023-05-10T04:28:27.342Z,14.67
2023-05-10T04:31:29.365Z,15.73
2023-05-10T04:34:31.404Z,14.20
2023-05-10T04:37:33.349Z,12.85
2023-05-10T04:40:35.621Z,11.80
2023-05-10T04:43:38.425Z,13.20
2023-05-10T04:46:40.537Z,12.02
2023-05-10T04:49:42.683Z,12.23
2023-05-10T04:52:44.626Z,13.43
2023-05-10T04:55:47.422Z,13.30
2023-05-10T04:58:49.345Z,11.93
2023-05-10T05:01:51.361Z,14.63
2023-05-10T05:04:53.378Z,11.18
2023-05-10T05:07:55.301Z,12.20
2023-05-10T05:10:57.333Z,12.40
2023-05-10T05:14:00.320Z,10.77
2023-05-10T05:17:02.298Z,12.27
2023-05-10T05:20:04.980Z,10.70
2023-05-10T05:23:07.177Z,10.60
2023-05-10T05:26:09.082Z,14.38
2023-05-10T05:29:11.003Z,10.73
2023-05-10T05:32:12.992Z,10.40
2023-05-10T05:35:15.127Z,10.00
2023-05-10T05:38:18.448Z,13.02
2023-05-10T05:41:21.025Z,10.15
2023-05-10T05:44:22.972Z,11.07
2023-05-10T05:47:24.948Z,10.57
2023-05-10T05:50:27.070Z,9.00
2023-05-10T05:53:29.050Z,11.02
2023-05-10T05:56:31.304Z,12.10
2023-05-10T05:59:33.235Z,8.77
2023-05-10T06:02:35.243Z,8.27
2023-05-10T06:05:37.257Z,8.35
2023-05-10T06:08:39.212Z,8.55
2023-05-10T06:11:41.403Z,9.63
2023-05-10T06:14:43.458Z,8.20
2023-05-10T06:17:45.543Z,7.90
2023-05-10T06:20:47.699Z,7.87
2023-05-10T06:23:49.724Z,9.57
2023-05-10T06:26:51.696Z,8.57
2023-05-10T06:30:02.206Z,8.60
2023-05-10T06:33:11.481Z,7.85
2023-05-10T06:36:14.404Z,8.10
2023-05-10T06:39:17.009Z,7.72
2023-05-10T06:42:18.979Z,7.75
2023-05-10T06:45:21.770Z,8.63
2023-05-10T06:48:23.923Z,7.62
2023-05-10T06:51:26.049Z,7.12
2023-05-10T06:54:47.923Z,8.65
2023-05-10T06:57:49.862Z,7.62
2023-05-10T07:00:51.897Z,7.27
2023-05-10T07:03:53.964Z,7.00
2023-05-10T07:06:55.886Z,8.30
2023-05-10T07:09:58.740Z,7.95
2023-05-10T07:13:02.457Z,6.72
2023-05-10T07:16:05.362Z,6.47
2023-05-10T07:19:07.287Z,7.40
2023-05-10T07:22:09.220Z,8.02
2023-05-10T07:25:11.808Z,6.78
2023-05-10T07:28:14.865Z,6.90
2023-05-10T07:31:16.840Z,7.10
2023-05-10T07:34:18.796Z,6.78
2023-05-10T07:37:20.863Z,6.80
2023-05-10T07:40:22.958Z,7.37
2023-05-10T07:43:24.910Z,6.65
2023-05-10T07:46:26.943Z,7.17
2023-05-10T07:49:28.916Z,6.30
2023-05-10T07:52:30.955Z,7.82
2023-05-10T07:55:33.892Z,6.80
2023-05-10T07:58:35.978Z,7.20
2023-05-10T08:01:37.860Z,5.93
2023-05-10T08:04:39.775Z,6.53
2023-05-10T08:07:41.682Z,6.90
2023-05-10T08:10:43.721Z,7.65
2023-05-10T08:13:49.759Z,6.47
2023-05-10T08:16:51.633Z,6.30
2023-05-10T08:19:53.547Z,6.65
2023-05-10T08:22:55.434Z,6.95
2023-05-10T08:25:57.367Z,6.75
2023-05-10T08:28:59.288Z,7.60
2023-05-10T08:32:01.990Z,5.60
2023-05-10T08:35:04.031Z,5.93
2023-05-10T08:38:06.143Z,6.37
2023-05-10T08:41:08.257Z,6.12
2023-05-10T08:44:10.923Z,6.30
2023-05-10T08:47:14.736Z,6.93
2023-05-10T08:50:18.448Z,5.72
2023-05-10T08:53:22.127Z,5.95
2023-05-10T08:56:25.163Z,6.07
2023-05-10T08:59:27.181Z,6.50
2023-05-10T09:02:29.090Z,6.97
2023-05-10T09:05:31.315Z,7.93
2023-05-10T09:08:33.512Z,6.40
2023-05-10T09:11:36.136Z,6.55
2023-05-10T09:14:38.885Z,6.05
2023-05-10T09:17:42.061Z,6.00
2023-05-10T09:20:43.965Z,5.30
2023-05-10T09:23:48.627Z,6.18
2023-05-10T09:26:50.751Z,5.60
2023-05-10T09:29:55.469Z,7.53
2023-05-10T09:32:59.284Z,5.47
2023-05-10T09:36:09.334Z,5.97
2023-05-10T09:39:11.605Z,7.45
2023-05-10T09:42:13.552Z,6.62
2023-05-10T09:45:15.549Z,10.15
2023-05-10T09:48:17.721Z,6.77
2023-05-10T09:51:24.364Z,6.60
2023-05-10T09:54:26.464Z,5.85
2023-05-10T09:57:28.328Z,7.37
2023-05-10T10:00:36.938Z,6.40
2023-05-10T10:03:43.603Z,6.60
2023-05-10T10:06:46.249Z,6.43
2023-05-10T10:09:48.387Z,6.97
2023-05-10T10:12:50.639Z,6.07
2023-05-10T10:15:53.686Z,6.18
2023-05-10T10:18:56.551Z,6.40
2023-05-10T10:22:00.035Z,7.10
2023-05-10T10:25:02.175Z,6.68
2023-05-10T10:28:31.531Z,6.07
2023-05-10T10:31:48.610Z,6.85
2023-05-10T10:34:50.953Z,6.73
2023-05-10T10:37:52.869Z,6.85
2023-05-10T10:41:10.401Z,8.93
2023-05-10T10:44:27.415Z,9.65
2023-05-10T10:47:33.983Z,7.72
2023-05-10T10:50:45.847Z,7.97
2023-05-10T10:53:49.157Z,8.18
2023-05-10T10:57:17.101Z,8.27
2023-05-10T11:00:33.438Z,6.50
2023-05-10T11:03:35.445Z,6.85
2023-05-10T11:06:37.401Z,6.97
2023-05-10T11:09:42.360Z,8.32
2023-05-10T11:13:12.707Z,6.35
2023-05-10T11:16:14.894Z,6.35
2023-05-10T11:19:18.488Z,8.13
2023-05-10T11:22:20.502Z,6.20
2023-05-10T11:25:28.128Z,7.62
2023-05-10T11:28:30.051Z,6.62
2023-05-10T11:31:32.267Z,6.97
2023-05-10T11:34:34.854Z,6.50
2023-05-10T11:37:36.965Z,7.90
2023-05-10T11:40:40.481Z,7.57
2023-05-10T11:43:43.739Z,6.57
2023-05-10T11:46:45.938Z,9.02
2023-05-10T11:49:49.966Z,6.85
2023-05-10T11:52:56.577Z,6.90
2023-05-10T11:56:06.656Z,6.93
2023-05-10T11:59:09.320Z,8.57
2023-05-10T12:02:11.577Z,6.75
2023-05-10T12:05:14.299Z,7.93
2023-05-10T12:08:21.203Z,7.13
2023-05-10T12:11:26.893Z,9.23
2023-05-10T12:14:29.805Z,9.73
2023-05-10T12:17:31.808Z,8.40
2023-05-10T12:20:33.737Z,6.60
2023-05-10T12:23:35.758Z,7.67
2023-05-10T12:29:55.778Z,6.60
2023-05-10T12:33:02.877Z,6.90
2023-05-10T12:36:05.064Z,7.93
2023-05-10T12:39:06.983Z,6.40
2023-05-10T12:42:08.933Z,7.12
2023-05-10T12:45:11.211Z,8.70
2023-05-10T12:48:13.109Z,8.07
2023-05-10T12:51:18.170Z,9.10
2023-05-10T12:54:20.296Z,8.70
2023-05-10T12:57:22.829Z,7.12
2023-05-10T13:00:24.910Z,7.53
2023-05-10T13:03:26.723Z,7.07
2023-05-10T13:06:28.764Z,9.52
2023-05-10T13:09:30.838Z,7.93
2023-05-10T13:12:33.107Z,7.80
2023-05-10T13:15:35.223Z,10.15
2023-05-10T13:18:37.203Z,7.47
2023-05-10T13:21:39.076Z,8.98
2023-05-10T13:24:40.883Z,7.73
2023-05-10T13:27:42.868Z,8.00
2023-05-10T13:30:44.976Z,9.52
2023-05-10T13:33:46.839Z,8.45
2023-05-10T13:36:48.950Z,7.43
2023-05-10T13:39:50.834Z,7.93
2023-05-10T13:42:54.030Z,9.50
2023-05-10T13:45:55.995Z,8.65
2023-05-10T13:48:57.932Z,7.60
2023-05-10T13:52:00.039Z,11.32
2023-05-10T13:55:01.824Z,8.30
2023-05-10T13:58:03.863Z,7.90
2023-05-10T14:01:05.956Z,7.87
2023-05-10T14:04:11.414Z,7.82
2023-05-10T14:07:13.366Z,10.30
2023-05-10T14:10:15.358Z,7.70
2023-05-10T14:13:17.259Z,8.02
2023-05-10T14:16:19.236Z,8.27
2023-05-10T14:19:21.438Z,8.30
2023-05-10T14:22:23.694Z,8.73
2023-05-10T14:25:25.800Z,7.80
2023-05-10T14:28:27.791Z,8.13
2023-05-10T14:31:31.466Z,7.78
2023-05-10T14:34:33.653Z,8.00
2023-05-10T14:37:35.899Z,7.70
2023-05-10T14:40:37.732Z,8.33
2023-05-10T14:43:39.600Z,8.40
2023-05-10T14:46:41.510Z,8.85
2023-05-10T14:49:43.385Z,9.60
2023-05-10T14:52:45.639Z,7.87
2023-05-10T14:55:47.749Z,8.40
2023-05-10T14:58:50.923Z,7.25
2023-05-10T15:01:52.838Z,8.05
2023-05-10T15:04:55.165Z,7.75
2023-05-10T15:07:57.448Z,9.52
2023-05-10T15:10:59.256Z,8.00
2023-05-10T15:14:01.160Z,8.13
2023-05-10T15:17:03.327Z,7.65
2023-05-10T15:20:05.963Z,7.37
2023-05-10T15:23:08.344Z,8.85
2023-05-10T15:26:10.200Z,7.20
2023-05-10T15:29:12.092Z,7.30
2023-05-10T15:32:14.157Z,7.87
2023-05-10T15:35:16.489Z,7.72
2023-05-10T15:38:19.445Z,8.32
2023-05-10T15:41:22.152Z,10.67
2023-05-10T15:44:25.432Z,8.98
2023-05-10T15:47:28.746Z,8.65
2023-05-10T15:50:30.723Z,7.60
2023-05-10T15:53:32.604Z,9.05
2023-05-10T15:56:35.300Z,8.10
2023-05-10T15:59:37.880Z,8.57
2023-05-10T16:02:40.902Z,7.80
2023-05-10T16:05:43.027Z,9.55
2023-05-10T16:08:45.021Z,9.50
2023-05-10T16:11:47.015Z,7.13
2023-05-10T16:14:48.922Z,7.85
2023-05-10T16:17:51.212Z,9.20
2023-05-10T16:20:54.126Z,8.55
2023-05-10T16:23:56.066Z,9.07
2023-05-10T16:26:58.358Z,8.83
2023-05-10T16:30:00.402Z,9.13
2023-05-10T16:33:02.634Z,8.48
2023-05-10T16:36:06.200Z,8.20
2023-05-10T16:39:09.875Z,8.23
2023-05-10T16:42:11.794Z,9.30
2023-05-10T16:45:14.181Z,9.52
2023-05-10T16:48:16.273Z,8.40
2023-05-10T16:51:18.387Z,8.25
2023-05-10T16:54:22.020Z,11.07
2023-05-10T16:57:24.389Z,13.53
2023-05-10T17:00:27.282Z,7.87
2023-05-10T17:03:29.380Z,9.15
2023-05-10T17:06:31.476Z,8.32
2023-05-10T17:09:33.338Z,9.32
2023-05-10T17:12:35.262Z,8.17
2023-05-10T17:15:37.851Z,7.95
2023-05-10T17:18:41.944Z,11.55
2023-05-10T17:21:43.961Z,9.63
2023-05-10T17:24:46.623Z,9.30
2023-05-10T17:27:48.549Z,7.43
2023-05-10T17:30:57.443Z,11.73
2023-05-10T17:34:00.386Z,9.00
2023-05-10T17:37:02.549Z,8.73
2023-05-10T17:40:05.960Z,11.18
2023-05-10T17:43:07.983Z,9.40
2023-05-10T17:46:10.063Z,7.95
2023-05-10T17:49:12.073Z,8.35
2023-05-10T17:52:13.936Z,7.93
2023-05-10T17:55:16.200Z,7.85
2023-05-10T17:58:21.200Z,9.23
2023-05-10T18:01:23.155Z,9.38
2023-05-10T18:04:26.148Z,12.30
2023-05-10T18:07:30.121Z,11.60
2023-05-10T18:10:32.471Z,9.43
2023-05-10T18:13:34.458Z,9.80
2023-05-10T18:16:36.734Z,7.68
2023-05-10T18:19:39.877Z,12.95
2023-05-10T18:22:42.170Z,8.90
2023-05-10T18:25:44.517Z,8.05
2023-05-10T18:28:46.882Z,8.07
2023-05-10T18:31:49.708Z,9.88
2023-05-10T18:34:53.952Z,9.23
2023-05-10T18:37:58.429Z,10.93
2023-05-10T18:41:01.326Z,8.93
2023-05-10T18:44:04.362Z,8.00
2023-05-10T18:47:07.633Z,8.35
2023-05-10T18:50:12.905Z,9.27
2023-05-10T18:53:15.790Z,7.87
2023-05-10T18:56:19.753Z,9.30
2023-05-10T18:59:23.414Z,8.03
2023-05-10T19:02:27.243Z,7.87
2023-05-10T19:05:31.799Z,10.80
2023-05-10T19:08:36.762Z,12.40
2023-05-10T19:11:41.497Z,9.93
2023-05-10T19:14:45.452Z,7.97
2023-05-10T19:17:52.892Z,9.07
2023-05-10T19:20:56.644Z,9.95
2023-05-10T19:24:02.421Z,9.15
2023-05-10T19:27:06.385Z,7.53
2023-05-10T19:30:10.004Z,9.73
2023-05-10T19:33:13.312Z,8.48
2023-05-10T19:36:16.712Z,8.55
2023-05-10T19:39:19.723Z,7.55
2023-05-10T19:42:23.261Z,9.07
2023-05-10T19:45:26.944Z,8.33
2023-05-10T19:48:31.031Z,9.73
2023-05-10T19:51:34.062Z,8.77
2023-05-10T19:54:36.923Z,10.32
2023-05-10T19:57:39.481Z,8.20
2023-05-10T20:00:42.220Z,11.60
2023-05-10T20:03:44.866Z,7.70
2023-05-10T20:06:47.818Z,8.95
2023-05-10T20:09:51.275Z,10.73
2023-05-10T20:12:53.980Z,9.68
2023-05-10T20:15:58.176Z,7.10
2023-05-10T20:19:01.670Z,9.52
2023-05-10T20:22:05.802Z,8.93
2023-05-10T20:25:08.766Z,9.23
2023-05-10T20:28:13.239Z,9.60
2023-05-10T20:31:16.282Z,8.33
2023-05-10T20:34:19.261Z,7.47
2023-05-10T20:37:22.921Z,8.48
2023-05-10T20:40:25.936Z,7.62
2023-05-10T20:43:29.296Z,8.52
2023-05-10T20:46:33.133Z,10.13
2023-05-10T20:49:37.934Z,9.02
2023-05-10T20:52:40.240Z,8.57
2023-05-10T20:55:42.150Z,9.38
2023-05-10T20:58:44.394Z,7.35
2023-05-10T21:01:46.286Z,7.47
2023-05-10T21:04:48.601Z,8.13
2023-05-10T21:07:50.710Z,9.85
2023-05-10T21:10:52.656Z,8.05
2023-05-10T21:13:54.619Z,7.10
2023-05-10T21:16:56.770Z,9.80
2023-05-10T21:19:58.706Z,8.70
2023-05-10T21:23:00.586Z,8.45
2023-05-10T21:26:03.738Z,7.28
2023-05-10T21:29:06.312Z,8.27
2023-05-10T21:32:08.278Z,8.30
2023-05-10T21:35:10.494Z,8.80
2023-05-10T21:38:12.491Z,8.50
2023-05-10T21:41:14.337Z,6.95
2023-05-10T21:44:16.466Z,8.35
2023-05-10T21:47:18.448Z,8.10
2023-05-10T21:50:20.515Z,8.75
2023-05-10T21:53:22.720Z,8.50
2023-05-10T21:56:24.823Z,8.38
2023-05-10T21:59:26.817Z,8.15
2023-05-10T22:02:29.574Z,9.13
2023-05-10T22:05:31.780Z,9.05
2023-05-10T22:08:33.666Z,7.55
2023-05-10T22:11:35.815Z,6.87
2023-05-10T22:14:37.769Z,8.05
2023-05-10T22:17:40.544Z,9.83
2023-05-10T22:20:45.479Z,7.57
2023-05-10T22:23:47.411Z,7.87
2023-05-10T22:26:49.291Z,8.15
2023-05-10T22:29:51.430Z,7.68
2023-05-10T22:32:53.576Z,9.97
2023-05-10T22:35:55.948Z,7.43
2023-05-10T22:38:58.215Z,9.77
2023-05-10T22:42:00.262Z,7.93
2023-05-10T22:45:02.187Z,8.63
2023-05-10T22:48:05.301Z,7.77
2023-05-10T22:51:07.469Z,10.80
2023-05-10T22:54:09.422Z,10.38
2023-05-10T22:57:11.676Z,8.82
2023-05-10T23:00:14.237Z,8.15
2023-05-10T23:03:16.249Z,11.30
2023-05-10T23:06:18.601Z,10.27
2023-05-10T23:09:20.558Z,7.97
2023-05-10T23:12:22.540Z,7.80
2023-05-10T23:15:24.525Z,7.93
2023-05-10T23:18:26.530Z,8.50
2023-05-10T23:21:31.900Z,9.70
2023-05-10T23:24:34.214Z,8.18
2023-05-10T23:27:36.174Z,8.52
2023-05-10T23:30:38.110Z,7.80
2023-05-10T23:33:40.005Z,8.23
2023-05-10T23:36:42.326Z,8.63
2023-05-10T23:39:44.931Z,6.28
2023-05-10T23:42:46.900Z,9.18
2023-05-10T23:45:56.841Z,9.02
2023-05-10T23:48:59.395Z,7.50
2023-05-10T23:52:01.363Z,7.82
2023-05-10T23:55:03.506Z,10.48
2023-05-10T23:58:05.610Z,6.70
